sensor_id;sensor_type;location;lat;lon;timestamp;pressure;altitude;pressure_sealevel;temperature;humidity
69219;BME280;56232;53.384;-2.732;2022-12-18T00:00:12;101536.57;;;-0.30;43.93
69219;BME280;56232;53.384;-2.732;2022-12-18T00:02:37;101536.45;;;-0.22;43.84
69219;BME280;56232;53.384;-2.732;2022-12-18T00:05:03;101529.45;;;-0.32;43.90
69219;BME280;56232;53.384;-2.732;2022-12-18T00:07:28;101529.79;;;0.25;44.01
69219;BME280;56232;53.384;-2.732;2022-12-18T00:09:54;101526.83;;;0.23;44.09
69219;BME280;56232;53.384;-2.732;2022-12-18T00:12:18;101526.20;;;0.26;43.88
69219;BME280;56232;53.384;-2.732;2022-12-18T00:14:43;101518.58;;;-0.30;43.79
69219;BME280;56232;53.384;-2.732;2022-12-18T00:17:09;101519.51;;;-0.34;44.02
69219;BME280;56232;53.384;-2.732;2022-12-18T00:19:35;101521.46;;;0.39;43.92
69219;BME280;56232;53.384;-2.732;2022-12-18T00:22:00;101518.06;;;-0.17;43.73
69219;BME280;56232;53.384;-2.732;2022-12-18T00:24:26;101519.53;;;0.36;43.71
69219;BME280;56232;53.384;-2.732;2022-12-18T00:26:52;101514.91;;;0.70;43.70
69219;BME280;56232;53.384;-2.732;2022-12-18T00:29:17;101516.99;;;0.11;43.75
69219;BME280;56232;53.384;-2.732;2022-12-18T00:31:42;101518.24;;;-0.48;43.68
69219;BME280;56232;53.384;-2.732;2022-12-18T00:34:09;101517.41;;;-0.47;43.65
69219;BME280;56232;53.384;-2.732;2022-12-18T00:36:34;101521.86;;;0.14;43.43
69219;BME280;56232;53.384;-2.732;2022-12-18T00:39:01;101515.58;;;0.03;43.50
69219;BME280;56232;53.384;-2.732;2022-12-18T00:41:25;101515.65;;;-0.03;43.48
69219;BME280;56232;53.384;-2.732;2022-12-18T00:43:50;101517.15;;;-0.29;43.47
69219;BME280;56232;53.384;-2.732;2022-12-18T00:46:15;101518.64;;;-0.51;43.77
69219;BME280;56232;53.384;-2.732;2022-12-18T00:48:41;101516.81;;;-0.60;43.87
69219;BME280;56232;53.384;-2.732;2022-12-18T00:51:06;101512.77;;;-0.65;43.72
69219;BME280;56232;53.384;-2.732;2022-12-18T00:53:31;101512.11;;;-0.18;43.82
69219;BME280;56232;53.384;-2.732;2022-12-18T00:55:57;101518.37;;;-0.36;43.95
69219;BME280;56232;53.384;-2.732;2022-12-18T00:58:23;101526.39;;;-0.83;43.91
69219;BME280;56232;53.384;-2.732;2022-12-18T01:00:54;101517.84;;;-0.83;43.66
69219;BME280;56232;53.384;-2.732;2022-12-18T01:03:14;101512.37;;;-1.43;43.54
69219;BME280;56232;53.384;-2.732;2022-12-18T01:05:40;101505.39;;;-0.80;43.36
69219;BME280;56232;53.384;-2.732;2022-12-18T01:08:10;101504.58;;;0.20;43.33
69219;BME280;56232;53.384;-2.732;2022-12-18T01:10:35;101497.56;;;-1.11;43.46
69219;BME280;56232;53.384;-2.732;2022-12-18T01:12:56;101490.94;;;-0.06;43.58
69219;BME280;56232;53.384;-2.732;2022-12-18T01:15:21;101489.57;;;-0.06;43.53
69219;BME280;56232;53.384;-2.732;2022-12-18T01:17:52;101491.88;;;-0.63;43.37
69219;BME280;56232;53.384;-2.732;2022-12-18T01:20:17;101495.80;;;-0.14;43.50
69219;BME280;56232;53.384;-2.732;2022-12-18T01:22:37;101493.71;;;-0.15;43.37
69219;BME280;56232;53.384;-2.732;2022-12-18T01:25:04;101488.83;;;-0.14;43.47
69219;BME280;56232;53.384;-2.732;2022-12-18T01:27:28;101498.59;;;-1.17;43.32
69219;BME280;56232;53.384;-2.732;2022-12-18T01:29:54;101492.90;;;-0.63;43.23
69219;BME280;56232;53.384;-2.732;2022-12-18T01:32:19;101491.39;;;-0.11;43.22
69219;BME280;56232;53.384;-2.732;2022-12-18T01:34:44;101491.62;;;-1.24;43.17
69219;BME280;56232;53.384;-2.732;2022-12-18T01:37:09;101498.45;;;-0.82;43.22
69219;BME280;56232;53.384;-2.732;2022-12-18T01:39:35;101502.28;;;-0.93;43.30
69219;BME280;56232;53.384;-2.732;2022-12-18T01:42:09;101505.99;;;-1.55;43.39
69219;BME280;56232;53.384;-2.732;2022-12-18T01:46:50;101495.42;;;-0.44;43.07
69219;BME280;56232;53.384;-2.732;2022-12-18T01:49:15;101494.79;;;-0.64;43.14
69219;BME280;56232;53.384;-2.732;2022-12-18T01:51:41;101492.36;;;-0.81;43.09
69219;BME280;56232;53.384;-2.732;2022-12-18T01:54:06;101490.43;;;-0.92;43.27
69219;BME280;56232;53.384;-2.732;2022-12-18T01:56:31;101493.20;;;-1.48;43.10
69219;BME280;56232;53.384;-2.732;2022-12-18T01:59:00;101497.82;;;-1.10;42.89
69219;BME280;56232;53.384;-2.732;2022-12-18T02:01:23;101498.80;;;-0.72;43.02
69219;BME280;56232;53.384;-2.732;2022-12-18T02:03:48;101500.73;;;-1.16;42.90
69219;BME280;56232;53.384;-2.732;2022-12-18T02:06:16;101505.46;;;-1.78;42.82
69219;BME280;56232;53.384;-2.732;2022-12-18T02:08:47;101506.19;;;-1.32;42.75
69219;BME280;56232;53.384;-2.732;2022-12-18T02:11:08;101504.34;;;-1.37;42.75
69219;BME280;56232;53.384;-2.732;2022-12-18T02:13:38;101506.48;;;-1.39;42.80
69219;BME280;56232;53.384;-2.732;2022-12-18T02:16:02;101508.25;;;-1.97;42.74
69219;BME280;56232;53.384;-2.732;2022-12-18T02:18:25;101505.30;;;-1.42;42.62
69219;BME280;56232;53.384;-2.732;2022-12-18T02:20:49;101508.93;;;-1.41;42.50
69219;BME280;56232;53.384;-2.732;2022-12-18T02:23:22;101513.64;;;-1.44;42.14
69219;BME280;56232;53.384;-2.732;2022-12-18T02:28:05;101513.34;;;-1.51;42.18
69219;BME280;56232;53.384;-2.732;2022-12-18T02:30:31;101515.99;;;-2.12;42.36
69219;BME280;56232;53.384;-2.732;2022-12-18T02:32:55;101512.44;;;-0.96;42.19
69219;BME280;56232;53.384;-2.732;2022-12-18T02:35:22;101510.10;;;-1.57;42.19
69219;BME280;56232;53.384;-2.732;2022-12-18T02:37:45;101508.55;;;-1.10;42.14
69219;BME280;56232;53.384;-2.732;2022-12-18T02:40:10;101511.53;;;-1.71;42.55
69219;BME280;56232;53.384;-2.732;2022-12-18T02:42:34;101512.00;;;-2.26;42.52
69219;BME280;56232;53.384;-2.732;2022-12-18T02:44:59;101510.66;;;-1.66;42.46
69219;BME280;56232;53.384;-2.732;2022-12-18T02:47:29;101511.27;;;-1.59;42.50
69219;BME280;56232;53.384;-2.732;2022-12-18T02:49:57;101504.86;;;-1.05;42.65
69219;BME280;56232;53.384;-2.732;2022-12-18T02:52:20;101510.53;;;-1.52;42.59
69219;BME280;56232;53.384;-2.732;2022-12-18T02:54:49;101507.81;;;-1.00;42.65
69219;BME280;56232;53.384;-2.732;2022-12-18T02:57:14;101507.30;;;-1.41;42.55
69219;BME280;56232;53.384;-2.732;2022-12-18T02:59:36;101502.92;;;-1.47;42.92
69219;BME280;56232;53.384;-2.732;2022-12-18T03:02:01;101501.78;;;-1.44;42.58
69219;BME280;56232;53.384;-2.732;2022-12-18T03:04:30;101495.03;;;-1.39;42.41
69219;BME280;56232;53.384;-2.732;2022-12-18T03:06:50;101500.16;;;-1.31;42.44
69219;BME280;56232;53.384;-2.732;2022-12-18T03:09:15;101496.90;;;-1.22;42.37
69219;BME280;56232;53.384;-2.732;2022-12-18T03:11:48;101493.54;;;-1.15;41.79
69219;BME280;56232;53.384;-2.732;2022-12-18T03:14:03;101491.28;;;-1.24;42.03
69219;BME280;56232;53.384;-2.732;2022-12-18T03:16:29;101485.67;;;-1.18;41.99
69219;BME280;56232;53.384;-2.732;2022-12-18T03:18:56;101481.22;;;-0.70;41.93
69219;BME280;56232;53.384;-2.732;2022-12-18T03:21:24;101473.09;;;-1.24;41.82
69219;BME280;56232;53.384;-2.732;2022-12-18T03:23:47;101467.07;;;-1.91;41.72
69219;BME280;56232;53.384;-2.732;2022-12-18T03:26:14;101455.99;;;-1.81;41.70
69219;BME280;56232;53.384;-2.732;2022-12-18T03:28:40;101448.94;;;-1.71;41.30
69219;BME280;56232;53.384;-2.732;2022-12-18T03:31:02;101445.13;;;-1.13;41.38
69219;BME280;56232;53.384;-2.732;2022-12-18T03:33:30;101439.04;;;-1.12;41.50
69219;BME280;56232;53.384;-2.732;2022-12-18T03:35:52;101433.26;;;-1.75;41.31
69219;BME280;56232;53.384;-2.732;2022-12-18T03:38:16;101426.58;;;-1.26;41.34
69219;BME280;56232;53.384;-2.732;2022-12-18T03:40:48;101424.60;;;-1.97;41.54
69219;BME280;56232;53.384;-2.732;2022-12-18T03:43:10;101423.11;;;-1.88;41.71
69219;BME280;56232;53.384;-2.732;2022-12-18T03:45:36;101421.89;;;-1.29;41.77
69219;BME280;56232;53.384;-2.732;2022-12-18T03:48:00;101425.50;;;-1.14;41.82
69219;BME280;56232;53.384;-2.732;2022-12-18T03:50:29;101419.91;;;-1.06;41.65
69219;BME280;56232;53.384;-2.732;2022-12-18T03:52:49;101418.33;;;-1.73;41.51
69219;BME280;56232;53.384;-2.732;2022-12-18T03:55:13;101409.42;;;-1.26;41.61
69219;BME280;56232;53.384;-2.732;2022-12-18T03:57:39;101397.95;;;-0.26;41.89
69219;BME280;56232;53.384;-2.732;2022-12-18T04:00:09;101404.53;;;-1.69;41.53
69219;BME280;56232;53.384;-2.732;2022-12-18T04:02:31;101402.78;;;-1.06;41.55
69219;BME280;56232;53.384;-2.732;2022-12-18T04:04:59;101395.43;;;-1.08;41.17
69219;BME280;56232;53.384;-2.732;2022-12-18T04:07:21;101390.36;;;-1.31;41.35
69219;BME280;56232;53.384;-2.732;2022-12-18T04:09:48;101387.01;;;-1.50;41.55
69219;BME280;56232;53.384;-2.732;2022-12-18T04:12:11;101382.56;;;-1.62;41.76
69219;BME280;56232;53.384;-2.732;2022-12-18T04:14:36;101381.34;;;-1.78;41.91
69219;BME280;56232;53.384;-2.732;2022-12-18T04:17:02;101372.41;;;-1.70;42.07
69219;BME280;56232;53.384;-2.732;2022-12-18T04:19:27;101364.72;;;-1.71;41.87
69219;BME280;56232;53.384;-2.732;2022-12-18T04:21:53;101356.94;;;-1.72;41.89
69219;BME280;56232;53.384;-2.732;2022-12-18T04:24:18;101357.22;;;-1.67;41.99
69219;BME280;56232;53.384;-2.732;2022-12-18T04:26:43;101343.54;;;-1.71;42.05
69219;BME280;56232;53.384;-2.732;2022-12-18T04:29:09;101338.49;;;-1.73;42.00
69219;BME280;56232;53.384;-2.732;2022-12-18T04:31:34;101345.15;;;-1.75;42.10
69219;BME280;56232;53.384;-2.732;2022-12-18T04:34:05;101342.89;;;-1.43;42.18
69219;BME280;56232;53.384;-2.732;2022-12-18T04:36:26;101342.05;;;-1.43;42.38
69219;BME280;56232;53.384;-2.732;2022-12-18T04:38:51;101336.17;;;-2.00;42.30
69219;BME280;56232;53.384;-2.732;2022-12-18T04:41:21;101325.11;;;-1.47;42.26
69219;BME280;56232;53.384;-2.732;2022-12-18T04:43:41;101312.38;;;-2.08;42.40
69219;BME280;56232;53.384;-2.732;2022-12-18T04:46:07;101314.13;;;-1.07;42.36
69219;BME280;56232;53.384;-2.732;2022-12-18T04:48:32;101312.00;;;-2.01;42.45
69219;BME280;56232;53.384;-2.732;2022-12-18T04:51:03;101301.55;;;-1.40;42.33
69219;BME280;56232;53.384;-2.732;2022-12-18T04:53:23;101293.58;;;-0.95;42.42
69219;BME280;56232;53.384;-2.732;2022-12-18T04:55:49;101284.12;;;-1.40;42.44
69219;BME280;56232;53.384;-2.732;2022-12-18T04:58:14;101284.31;;;-1.74;42.12
69219;BME280;56232;53.384;-2.732;2022-12-18T05:00:45;101283.21;;;-1.81;42.27
69219;BME280;56232;53.384;-2.732;2022-12-18T05:03:05;101284.03;;;-1.60;42.17
69219;BME280;56232;53.384;-2.732;2022-12-18T05:05:36;101277.20;;;-1.03;42.09
69219;BME280;56232;53.384;-2.732;2022-12-18T05:07:56;101269.46;;;-1.49;42.10
69219;BME280;56232;53.384;-2.732;2022-12-18T05:10:22;101265.23;;;-1.37;42.06
69219;BME280;56232;53.384;-2.732;2022-12-18T05:12:47;101264.49;;;-0.70;42.04
69219;BME280;56232;53.384;-2.732;2022-12-18T05:15:12;101271.00;;;-1.26;41.95
69219;BME280;56232;53.384;-2.732;2022-12-18T05:17:37;101270.58;;;-1.27;41.89
69219;BME280;56232;53.384;-2.732;2022-12-18T05:20:03;101275.53;;;-1.33;41.93
69219;BME280;56232;53.384;-2.732;2022-12-18T05:22:28;101296.83;;;-1.21;41.92
69219;BME280;56232;53.384;-2.732;2022-12-18T05:24:54;101294.09;;;-1.20;41.89
69219;BME280;56232;53.384;-2.732;2022-12-18T05:27:19;101294.35;;;-1.00;41.81
69219;BME280;56232;53.384;-2.732;2022-12-18T05:29:49;101296.87;;;-1.07;41.76
69219;BME280;56232;53.384;-2.732;2022-12-18T05:32:10;101290.49;;;-1.22;41.97
69219;BME280;56232;53.384;-2.732;2022-12-18T05:34:36;101290.74;;;-1.17;41.89
69219;BME280;56232;53.384;-2.732;2022-12-18T05:37:08;101298.93;;;-1.20;41.90
69219;BME280;56232;53.384;-2.732;2022-12-18T05:39:26;101299.69;;;-1.19;41.88
69219;BME280;56232;53.384;-2.732;2022-12-18T05:41:53;101286.14;;;-1.18;41.86
69219;BME280;56232;53.384;-2.732;2022-12-18T05:44:17;101282.56;;;-1.33;42.00
69219;BME280;56232;53.384;-2.732;2022-12-18T05:46:43;101279.26;;;-1.36;42.14
69219;BME280;56232;53.384;-2.732;2022-12-18T05:49:08;101273.14;;;-1.41;42.12
69219;BME280;56232;53.384;-2.732;2022-12-18T05:51:33;101273.48;;;-0.97;42.22
69219;BME280;56232;53.384;-2.732;2022-12-18T05:53:59;101271.82;;;-0.50;42.25
69219;BME280;56232;53.384;-2.732;2022-12-18T05:56:24;101281.21;;;-1.34;42.27
69219;BME280;56232;53.384;-2.732;2022-12-18T05:58:52;101280.81;;;-1.20;42.19
69219;BME280;56232;53.384;-2.732;2022-12-18T06:01:18;101281.16;;;-1.19;42.15
69219;BME280;56232;53.384;-2.732;2022-12-18T06:03:41;101281.75;;;-1.05;42.11
69219;BME280;56232;53.384;-2.732;2022-12-18T06:06:13;101277.20;;;-2.23;42.21
69219;BME280;56232;53.384;-2.732;2022-12-18T06:08:33;101274.91;;;-0.92;42.29
69219;BME280;56232;53.384;-2.732;2022-12-18T06:10:58;101266.85;;;-0.74;42.01
69219;BME280;56232;53.384;-2.732;2022-12-18T06:13:24;101265.54;;;-0.69;42.02
69219;BME280;56232;53.384;-2.732;2022-12-18T06:15:50;101272.46;;;-0.70;42.02
69219;BME280;56232;53.384;-2.732;2022-12-18T06:18:15;101269.13;;;-1.29;42.07
69219;BME280;56232;53.384;-2.732;2022-12-18T06:20:54;101264.05;;;-0.69;42.15
69219;BME280;56232;53.384;-2.732;2022-12-18T06:23:07;101254.14;;;-1.31;42.05
69219;BME280;56232;53.384;-2.732;2022-12-18T06:25:31;101254.19;;;-0.77;42.20
69219;BME280;56232;53.384;-2.732;2022-12-18T06:27:57;101263.76;;;-0.29;42.30
69219;BME280;56232;53.384;-2.732;2022-12-18T06:30:22;101254.36;;;-0.96;42.49
69219;BME280;56232;53.384;-2.732;2022-12-18T06:32:48;101247.11;;;-1.01;42.66
69219;BME280;56232;53.384;-2.732;2022-12-18T06:35:13;101237.78;;;-0.98;42.72
69219;BME280;56232;53.384;-2.732;2022-12-18T06:37:39;101228.63;;;0.07;42.84
69219;BME280;56232;53.384;-2.732;2022-12-18T06:40:06;101223.86;;;-0.53;43.01
69219;BME280;56232;53.384;-2.732;2022-12-18T06:42:30;101227.99;;;-0.91;42.89
69219;BME280;56232;53.384;-2.732;2022-12-18T06:44:55;101227.41;;;-0.31;42.95
69219;BME280;56232;53.384;-2.732;2022-12-18T06:47:21;101227.46;;;-1.31;42.98
69219;BME280;56232;53.384;-2.732;2022-12-18T06:49:46;101228.66;;;-0.62;42.75
69219;BME280;56232;53.384;-2.732;2022-12-18T06:52:11;101227.97;;;-0.72;42.80
69219;BME280;56232;53.384;-2.732;2022-12-18T06:54:37;101222.28;;;-0.74;42.91
69219;BME280;56232;53.384;-2.732;2022-12-18T06:57:02;101221.96;;;-0.81;42.95
69219;BME280;56232;53.384;-2.732;2022-12-18T06:59:32;101215.81;;;-0.63;42.84
69219;BME280;56232;53.384;-2.732;2022-12-18T07:01:54;101219.53;;;-0.76;42.98
69219;BME280;56232;53.384;-2.732;2022-12-18T07:04:18;101220.23;;;-1.35;43.11
69219;BME280;56232;53.384;-2.732;2022-12-18T07:06:44;101209.76;;;-1.19;42.68
69219;BME280;56232;53.384;-2.732;2022-12-18T07:09:09;101206.82;;;-1.09;42.94
69219;BME280;56232;53.384;-2.732;2022-12-18T07:11:34;101200.59;;;-0.86;42.61
69219;BME280;56232;53.384;-2.732;2022-12-18T07:14:00;101193.76;;;-0.91;42.53
69219;BME280;56232;53.384;-2.732;2022-12-18T07:16:25;101198.57;;;-0.87;42.57
69219;BME280;56232;53.384;-2.732;2022-12-18T07:18:50;101200.45;;;-0.31;42.50
69219;BME280;56232;53.384;-2.732;2022-12-18T07:21:18;101195.76;;;-1.27;42.52
69219;BME280;56232;53.384;-2.732;2022-12-18T07:23:41;101188.61;;;-0.07;42.34
69219;BME280;56232;53.384;-2.732;2022-12-18T07:26:08;101182.06;;;-1.29;42.41
69219;BME280;56232;53.384;-2.732;2022-12-18T07:28:33;101194.67;;;-1.15;42.28
69219;BME280;56232;53.384;-2.732;2022-12-18T07:30:57;101195.20;;;-0.11;42.44
69219;BME280;56232;53.384;-2.732;2022-12-18T07:33:22;101196.63;;;-1.16;42.37
69219;BME280;56232;53.384;-2.732;2022-12-18T07:35:47;101200.40;;;-1.02;42.46
69219;BME280;56232;53.384;-2.732;2022-12-18T07:38:18;101216.15;;;-0.85;42.22
69219;BME280;56232;53.384;-2.732;2022-12-18T07:40:38;101206.48;;;-0.75;41.91
69219;BME280;56232;53.384;-2.732;2022-12-18T07:43:09;101194.13;;;-0.32;41.95
69219;BME280;56232;53.384;-2.732;2022-12-18T07:45:30;101187.36;;;-1.00;42.02
69219;BME280;56232;53.384;-2.732;2022-12-18T07:47:55;101180.04;;;-0.63;42.19
69219;BME280;56232;53.384;-2.732;2022-12-18T07:50:19;101176.51;;;-0.47;42.08
69219;BME280;56232;53.384;-2.732;2022-12-18T07:52:44;101184.04;;;-0.99;42.20
69219;BME280;56232;53.384;-2.732;2022-12-18T07:55:10;101190.62;;;-0.82;42.08
69219;BME280;56232;53.384;-2.732;2022-12-18T07:57:35;101200.78;;;-0.38;42.02
69219;BME280;56232;53.384;-2.732;2022-12-18T08:00:01;101195.58;;;-0.84;41.96
69219;BME280;56232;53.384;-2.732;2022-12-18T08:02:26;101200.48;;;-0.84;41.91
69219;BME280;56232;53.384;-2.732;2022-12-18T08:04:53;101193.42;;;-0.87;42.06
69219;BME280;56232;53.384;-2.732;2022-12-18T08:07:18;101184.81;;;-0.98;42.08
69219;BME280;56232;53.384;-2.732;2022-12-18T08:09:43;101189.10;;;0.15;42.18
69219;BME280;56232;53.384;-2.732;2022-12-18T08:12:13;101183.22;;;-0.75;42.16
69219;BME280;56232;53.384;-2.732;2022-12-18T08:14:33;101185.58;;;-0.65;42.03
69219;BME280;56232;53.384;-2.732;2022-12-18T08:16:59;101187.96;;;0.12;41.91
69219;BME280;56232;53.384;-2.732;2022-12-18T08:19:24;101178.11;;;-0.20;41.64
69219;BME280;56232;53.384;-2.732;2022-12-18T08:21:55;101170.65;;;-0.20;41.42
69219;BME280;56232;53.384;-2.732;2022-12-18T08:24:15;101171.55;;;-0.85;41.41
69219;BME280;56232;53.384;-2.732;2022-12-18T08:26:40;101159.89;;;-0.52;41.74
69219;BME280;56232;53.384;-2.732;2022-12-18T08:29:06;101148.92;;;-0.37;41.71
69219;BME280;56232;53.384;-2.732;2022-12-18T08:31:31;101126.45;;;-0.36;41.45
69219;BME280;56232;53.384;-2.732;2022-12-18T08:33:57;101126.87;;;-0.53;41.59
69219;BME280;56232;53.384;-2.732;2022-12-18T08:36:23;101115.39;;;-0.58;41.91
69219;BME280;56232;53.384;-2.732;2022-12-18T08:38:48;101106.66;;;-0.46;41.63
69219;BME280;56232;53.384;-2.732;2022-12-18T08:41:15;101104.31;;;-0.55;41.89
69219;BME280;56232;53.384;-2.732;2022-12-18T08:43:39;101086.60;;;0.57;41.75
69219;BME280;56232;53.384;-2.732;2022-12-18T08:46:05;101087.41;;;-0.52;41.67
69219;BME280;56232;53.384;-2.732;2022-12-18T08:48:30;101086.37;;;-1.06;41.73
69219;BME280;56232;53.384;-2.732;2022-12-18T08:50:56;101087.06;;;-0.53;41.88
69219;BME280;56232;53.384;-2.732;2022-12-18T08:53:24;101067.01;;;-0.41;41.61
69219;BME280;56232;53.384;-2.732;2022-12-18T08:55:47;101071.14;;;-0.57;41.83
69219;BME280;56232;53.384;-2.732;2022-12-18T08:58:13;101066.36;;;-0.77;41.98
69219;BME280;56232;53.384;-2.732;2022-12-18T09:00:38;101041.78;;;0.21;42.02
69219;BME280;56232;53.384;-2.732;2022-12-18T09:03:04;101050.08;;;-0.90;41.98
69219;BME280;56232;53.384;-2.732;2022-12-18T09:05:30;101042.31;;;-0.91;42.08
69219;BME280;56232;53.384;-2.732;2022-12-18T09:07:55;101041.74;;;-0.02;42.21
69219;BME280;56232;53.384;-2.732;2022-12-18T09:10:20;101028.35;;;-1.01;42.44
69219;BME280;56232;53.384;-2.732;2022-12-18T09:12:46;101030.22;;;-0.92;42.33
69219;BME280;56232;53.384;-2.732;2022-12-18T09:15:12;101032.99;;;-0.82;42.12
69219;BME280;56232;53.384;-2.732;2022-12-18T09:17:38;101030.18;;;0.35;42.14
69219;BME280;56232;53.384;-2.732;2022-12-18T09:20:03;101032.24;;;0.43;42.35
69219;BME280;56232;53.384;-2.732;2022-12-18T09:22:28;101027.03;;;0.02;41.86
69219;BME280;56232;53.384;-2.732;2022-12-18T09:24:54;101022.72;;;-0.48;41.63
69219;BME280;56232;53.384;-2.732;2022-12-18T09:27:18;101019.75;;;-0.70;41.78
69219;BME280;56232;53.384;-2.732;2022-12-18T09:29:44;101010.79;;;-0.42;42.07
69219;BME280;56232;53.384;-2.732;2022-12-18T09:32:09;100999.98;;;-1.02;42.41
69219;BME280;56232;53.384;-2.732;2022-12-18T09:34:35;100988.40;;;-0.71;42.35
69219;BME280;56232;53.384;-2.732;2022-12-18T09:37:00;100977.88;;;-0.60;42.03
69219;BME280;56232;53.384;-2.732;2022-12-18T09:39:25;100985.06;;;-0.13;41.85
69219;BME280;56232;53.384;-2.732;2022-12-18T09:41:52;100974.45;;;-0.76;42.06
69219;BME280;56232;53.384;-2.732;2022-12-18T09:44:21;100977.62;;;-0.67;42.08
69219;BME280;56232;53.384;-2.732;2022-12-18T09:46:43;100986.31;;;-0.46;42.06
69219;BME280;56232;53.384;-2.732;2022-12-18T09:49:11;100981.29;;;-0.32;42.07
69219;BME280;56232;53.384;-2.732;2022-12-18T09:51:36;100980.02;;;-0.26;41.75
69219;BME280;56232;53.384;-2.732;2022-12-18T09:53:59;100984.65;;;-0.18;41.73
69219;BME280;56232;53.384;-2.732;2022-12-18T09:56:22;100979.45;;;-0.08;41.43
69219;BME280;56232;53.384;-2.732;2022-12-18T09:58:50;100978.82;;;-0.00;41.69
69219;BME280;56232;53.384;-2.732;2022-12-18T10:01:14;100966.42;;;-0.43;41.20
69219;BME280;56232;53.384;-2.732;2022-12-18T10:03:37;100957.72;;;-0.12;41.39
69219;BME280;56232;53.384;-2.732;2022-12-18T10:06:13;100951.32;;;-0.21;41.76
69219;BME280;56232;53.384;-2.732;2022-12-18T10:08:35;100946.65;;;-0.11;41.63
69219;BME280;56232;53.384;-2.732;2022-12-18T10:10:59;100946.06;;;-0.06;41.43
69219;BME280;56232;53.384;-2.732;2022-12-18T10:13:24;100938.82;;;-0.32;41.82
69219;BME280;56232;53.384;-2.732;2022-12-18T10:15:56;100938.80;;;-0.17;41.70
69219;BME280;56232;53.384;-2.732;2022-12-18T10:18:20;100933.07;;;-0.27;41.61
69219;BME280;56232;53.384;-2.732;2022-12-18T10:20:45;100927.05;;;-0.08;41.81
69219;BME280;56232;53.384;-2.732;2022-12-18T10:23:07;100918.59;;;-0.02;41.66
69219;BME280;56232;53.384;-2.732;2022-12-18T10:25:31;100919.28;;;-0.05;41.56
69219;BME280;56232;53.384;-2.732;2022-12-18T10:27:56;100921.93;;;-0.11;41.39
69219;BME280;56232;53.384;-2.732;2022-12-18T10:30:20;100913.13;;;-0.34;42.17
69219;BME280;56232;53.384;-2.732;2022-12-18T10:32:43;100900.66;;;-0.13;41.98
69219;BME280;56232;53.384;-2.732;2022-12-18T10:35:15;100890.25;;;-0.29;42.01
69219;BME280;56232;53.384;-2.732;2022-12-18T10:37:34;100887.59;;;-0.13;41.93
69219;BME280;56232;53.384;-2.732;2022-12-18T10:40:09;100881.33;;;-0.03;42.16
69219;BME280;56232;53.384;-2.732;2022-12-18T10:42:24;100877.67;;;-0.46;41.89
69219;BME280;56232;53.384;-2.732;2022-12-18T10:45:00;100875.22;;;0.12;41.96
69219;BME280;56232;53.384;-2.732;2022-12-18T10:47:18;100868.76;;;-0.29;41.74
69219;BME280;56232;53.384;-2.732;2022-12-18T10:49:56;100865.35;;;0.45;41.21
69219;BME280;56232;53.384;-2.732;2022-12-18T10:52:14;100859.85;;;0.50;41.71
69219;BME280;56232;53.384;-2.732;2022-12-18T10:54:38;100855.51;;;0.62;41.35
69219;BME280;56232;53.384;-2.732;2022-12-18T10:59:24;100840.27;;;0.33;41.35
69219;BME280;56232;53.384;-2.732;2022-12-18T11:01:51;100832.83;;;1.07;41.37
69219;BME280;56232;53.384;-2.732;2022-12-18T11:04:19;100830.29;;;0.55;40.87
69219;BME280;56232;53.384;-2.732;2022-12-18T11:06:53;100829.76;;;0.01;41.41
69219;BME280;56232;53.384;-2.732;2022-12-18T11:11:32;100818.13;;;0.69;41.22
69219;BME280;56232;53.384;-2.732;2022-12-18T11:14:01;100802.90;;;1.23;41.26
69219;BME280;56232;53.384;-2.732;2022-12-18T11:16:22;100802.74;;;0.74;41.46
69219;BME280;56232;53.384;-2.732;2022-12-18T11:18:48;100801.38;;;1.31;41.34
69219;BME280;56232;53.384;-2.732;2022-12-18T11:21:14;100802.84;;;0.09;41.38
69219;BME280;56232;53.384;-2.732;2022-12-18T11:23:46;100792.26;;;1.24;41.66
69219;BME280;56232;53.384;-2.732;2022-12-18T11:26:05;100787.21;;;0.21;41.88
69219;BME280;56232;53.384;-2.732;2022-12-18T11:28:35;100771.64;;;0.78;42.20
69219;BME280;56232;53.384;-2.732;2022-12-18T11:33:27;100752.81;;;0.93;41.89
69219;BME280;56232;53.384;-2.732;2022-12-18T11:35:55;100750.20;;;0.58;41.65
69219;BME280;56232;53.384;-2.732;2022-12-18T11:38:20;100742.59;;;1.24;41.55
69219;BME280;56232;53.384;-2.732;2022-12-18T11:40:40;100751.26;;;0.62;41.56
69219;BME280;56232;53.384;-2.732;2022-12-18T11:43:07;100740.14;;;1.25;41.63
69219;BME280;56232;53.384;-2.732;2022-12-18T11:45:30;100726.47;;;0.16;41.36
69219;BME280;56232;53.384;-2.732;2022-12-18T11:47:58;100724.84;;;0.30;42.00
69219;BME280;56232;53.384;-2.732;2022-12-18T11:50:24;100733.71;;;0.83;42.32
69219;BME280;56232;53.384;-2.732;2022-12-18T11:52:45;100724.42;;;-0.15;42.15
69219;BME280;56232;53.384;-2.732;2022-12-18T11:55:12;100712.97;;;0.90;42.51
69219;BME280;56232;53.384;-2.732;2022-12-18T11:57:41;100709.17;;;1.00;42.20
69219;BME280;56232;53.384;-2.732;2022-12-18T12:00:08;100706.43;;;0.91;42.42
69219;BME280;56232;53.384;-2.732;2022-12-18T12:02:42;100694.55;;;0.52;42.38
69219;BME280;56232;53.384;-2.732;2022-12-18T12:05:03;100689.37;;;0.75;41.76
69219;BME280;56232;53.384;-2.732;2022-12-18T12:07:27;100687.54;;;1.37;41.90
69219;BME280;56232;53.384;-2.732;2022-12-18T12:09:50;100678.04;;;0.83;41.66
69219;BME280;56232;53.384;-2.732;2022-12-18T12:12:21;100670.49;;;0.34;41.93
69219;BME280;56232;53.384;-2.732;2022-12-18T12:14:45;100663.04;;;1.19;41.63
69219;BME280;56232;53.384;-2.732;2022-12-18T12:19:36;100658.11;;;1.21;41.41
69219;BME280;56232;53.384;-2.732;2022-12-18T12:21:56;100655.11;;;0.71;41.50
69219;BME280;56232;53.384;-2.732;2022-12-18T12:24:26;100657.18;;;0.72;41.61
69219;BME280;56232;53.384;-2.732;2022-12-18T12:26:53;100648.16;;;0.77;41.10
69219;BME280;56232;53.384;-2.732;2022-12-18T12:29:18;100640.86;;;1.15;41.37
69219;BME280;56232;53.384;-2.732;2022-12-18T12:31:43;100640.87;;;1.85;41.74
69219;BME280;56232;53.384;-2.732;2022-12-18T12:34:01;100631.53;;;0.78;41.43
69219;BME280;56232;53.384;-2.732;2022-12-18T12:36:29;100626.60;;;1.54;42.05
69219;BME280;56232;53.384;-2.732;2022-12-18T12:38:53;100623.55;;;0.62;42.82
69219;BME280;56232;53.384;-2.732;2022-12-18T12:41:20;100618.01;;;0.13;43.56
69219;BME280;56232;53.384;-2.732;2022-12-18T12:43:42;100618.02;;;0.40;44.09
69219;BME280;56232;53.384;-2.732;2022-12-18T12:46:05;100614.22;;;-0.44;44.73